Time;durP1;ratioP1;P1;durP2;ratioP2;P2;SDS_P1;SDS_P2;PMS_P1;PMS_P2;Temp;Humidity;BMP_temperature;BMP_pressure;BME280_temperature;BME280_humidity;BME280_pressure;Samples;Min_cycle;Max_cycle;Signal;HPM_P1;HPM_P2
2022/03/18 05:16:49;;;;;;;;;;;;;;;8.30;78.11;97945.28;4224029;27;10818;-59
2022/03/18 05:18:52;;;;;;;;;;;;;;;8.48;77.62;97950.56;4214858;28;5706;-60
2022/03/18 05:20:53;;;;;;;;;;;;;;;8.45;77.27;97958.78;4228864;28;5105;-60
2022/03/18 05:22:55;;;;;;;;;;;;;;;8.47;77.24;97962.09;4230763;28;7713;-61
2022/03/18 05:24:58;;;;;;;;;;;;;;;8.48;77.08;97961.09;4230370;28;5684;-61
2022/03/18 05:27:00;;;;;;;;;;;;;;;8.39;77.48;97957.59;4229220;28;6364;-61
2022/03/18 05:29:02;;;;;;;;;;;;;;;8.39;77.50;97967.31;4215284;28;5639;-61
2022/03/18 05:31:04;;;;;;;;;;;;;;;8.38;77.77;97958.56;4227400;28;5732;-60
2022/03/18 05:33:06;;;;;;;;;;;;;;;8.41;77.77;97965.34;4230129;28;5688;-60
2022/03/18 05:35:08;;;;;;;;;;;;;;;8.37;77.50;97974.50;4229136;28;5776;-61
2022/03/18 05:37:11;;;;;;;;;;;;;;;8.38;77.73;97970.91;4224667;28;5764;-60
2022/03/18 05:39:13;;;;;;;;;;;;;;;8.36;77.48;97962.31;4222076;27;5857;-68
2022/03/18 05:41:14;;;;;;;;;;;;;;;8.38;77.55;97971.75;4232698;27;6548;-67
2022/03/18 05:43:16;;;;;;;;;;;;;;;8.33;77.64;97971.31;4227690;27;5688;-66
2022/03/18 05:45:18;;;;;;;;;;;;;;;8.29;77.60;97971.78;4229214;28;5784;-63
2022/03/18 05:47:20;;;;;;;;;;;;;;;8.39;77.38;97983.13;4229572;27;5706;-63
2022/03/18 05:49:22;;;;;;;;;;;;;;;8.34;77.88;97964.25;4216439;28;5680;-62
2022/03/18 05:51:24;;;;;;;;;;;;;;;8.18;78.04;97992.09;4229624;28;5673;-64
2022/03/18 05:53:29;;;;;;;;;;;;;;;8.24;78.04;97980.13;4228525;28;5628;-65
2022/03/18 05:57:53;;;;;;;;;;;;;;;8.37;77.38;97987.69;4230464;28;5766;-65
2022/03/18 05:59:56;;;;;;;;;;;;;;;8.44;77.46;97994.03;4223082;28;5780;-66
2022/03/18 06:02:00;;;;;;;;;;;;;;;8.33;77.73;97983.69;4227576;28;5865;-65
2022/03/18 06:04:03;;;;;;;;;;;;;;;8.37;77.54;97992.97;4227614;28;5869;-66
2022/03/18 06:06:05;;;;;;;;;;;;;;;8.30;77.72;97990.06;4228758;28;6596;-66
2022/03/18 06:13:07;;;;;;;;;;;;;;;8.39;77.71;97993.66;4172908;28;5737;-65
2022/03/18 06:15:08;;;;;;;;;;;;;;;8.30;77.95;97990.06;4176954;28;5709;-63
2022/03/18 06:17:10;;;;;;;;;;;;;;;8.28;77.90;97980.69;4166436;28;5807;-63
2022/03/18 06:19:13;;;;;;;;;;;;;;;8.38;77.37;97991.97;4160160;28;5697;-63
2022/03/18 06:21:15;;;;;;;;;;;;;;;8.42;76.92;97983.63;4160909;28;5685;-65
2022/03/18 06:23:16;;;;;;;;;;;;;;;8.41;77.23;97987.25;4163653;28;5689;-65
2022/03/18 06:25:18;;;;;;;;;;;;;;;8.41;77.26;97992.53;4166397;28;5772;-65
2022/03/18 06:27:20;;;;;;;;;;;;;;;8.38;77.14;97999.88;4165406;28;5870;-63
2022/03/18 06:29:22;;;;;;;;;;;;;;;8.28;77.72;97983.31;4165408;28;5878;-61
2022/03/18 06:31:24;;;;;;;;;;;;;;;8.33;77.58;97984.50;4149846;28;5704;-61
2022/03/18 06:33:30;;;;;;;;;;;;;;;8.20;77.93;97996.38;4160201;28;5851;-62
2022/03/18 06:35:31;;;;;;;;;;;;;;;8.36;77.33;97986.84;4162210;28;5701;-63
2022/03/18 06:37:34;;;;;;;;;;;;;;;8.40;77.27;97992.69;4164823;28;5761;-64
2022/03/18 06:39:36;;;;;;;;;;;;;;;8.40;77.37;97979.50;4164768;28;5772;-65
2022/03/18 06:41:39;;;;;;;;;;;;;;;8.30;77.49;97992.72;4164713;28;5792;-67
2022/03/18 06:43:41;;;;;;;;;;;;;;;8.28;77.62;97991.22;4174807;28;5669;-67
2022/03/18 06:45:42;;;;;;;;;;;;;;;8.36;77.59;97988.66;4213980;28;5878;-67
2022/03/18 06:47:44;;;;;;;;;;;;;;;8.39;77.58;97998.94;4216193;28;5661;-65
2022/03/18 06:49:46;;;;;;;;;;;;;;;8.27;77.36;98000.94;4217271;28;5759;-65
2022/03/18 06:51:48;;;;;;;;;;;;;;;8.16;78.28;98004.59;4213072;28;5760;-68
2022/03/18 06:53:50;;;;;;;;;;;;;;;8.23;77.97;97999.53;4210078;28;5804;-62
2022/03/18 06:55:52;;;;;;;;;;;;;;;8.40;77.64;98000.59;4213229;28;5665;-65
2022/03/18 06:57:53;;;;;;;;;;;;;;;8.29;77.44;98004.22;4215195;28;5677;-64
2022/03/18 06:59:56;;;;;;;;;;;;;;;8.39;77.76;98012.94;4210661;28;5697;-70
2022/03/18 07:01:58;;;;;;;;;;;;;;;8.42;77.44;97998.63;4215976;28;5881;-69
2022/03/18 07:04:01;;;;;;;;;;;;;;;8.46;77.48;98007.88;4213576;28;5677;-69
2022/03/18 07:06:06;;;;;;;;;;;;;;;8.51;77.11;98003.00;4216993;28;5838;-64
2022/03/18 07:08:07;;;;;;;;;;;;;;;8.54;76.85;98007.13;4204845;28;6499;-68
2022/03/18 07:10:12;;;;;;;;;;;;;;;8.50;76.89;98014.53;4210817;28;5751;-72
2022/03/18 07:12:13;;;;;;;;;;;;;;;8.52;77.01;98015.19;4220486;28;5870;-61
2022/03/18 07:14:15;;;;;;;;;;;;;;;8.40;77.68;98014.59;4217680;28;5763;-66
2022/03/18 07:18:37;;;;;;;;;;;;;;;8.50;76.96;98014.53;4209126;28;6417;-68
2022/03/18 07:20:39;;;;;;;;;;;;;;;8.46;77.42;98013.16;4214859;28;5728;-68
2022/03/18 07:22:41;;;;;;;;;;;;;;;8.47;77.14;98017.44;4215301;28;5700;-67
2022/03/18 07:24:43;;;;;;;;;;;;;;;8.42;77.40;98023.16;4213276;28;5786;-70
2022/03/18 07:26:45;;;;;;;;;;;;;;;8.41;77.49;98033.84;4216537;28;5788;-68
2022/03/18 07:28:47;;;;;;;;;;;;;;;8.23;78.30;98023.25;4208202;28;5755;-68
2022/03/18 07:30:48;;;;;;;;;;;;;;;8.38;77.60;98028.88;4215581;28;5874;-69
2022/03/18 07:32:50;;;;;;;;;;;;;;;8.58;76.95;98019.84;4212359;28;7174;-69
2022/03/18 07:34:52;;;;;;;;;;;;;;;8.48;77.13;98029.63;4200831;28;5693;-70
2022/03/18 07:36:53;;;;;;;;;;;;;;;8.50;76.98;98027.69;4212628;28;5729;-68
2022/03/18 07:38:55;;;;;;;;;;;;;;;8.54;77.28;98036.94;4215039;28;5669;-68
2022/03/18 07:40:57;;;;;;;;;;;;;;;8.68;76.57;98036.41;4214532;28;5684;-68
2022/03/18 07:42:59;;;;;;;;;;;;;;;8.75;76.17;98026.94;4214752;28;6542;-69
2022/03/18 07:45:01;;;;;;;;;;;;;;;8.83;76.22;98033.25;4212959;28;5669;-69
2022/03/18 07:47:03;;;;;;;;;;;;;;;8.74;76.22;98020.00;4212415;28;6976;-69
2022/03/18 07:49:05;;;;;;;;;;;;;;;8.74;76.26;98022.66;4212221;28;5875;-69
2022/03/18 07:51:07;;;;;;;;;;;;;;;8.84;76.16;98029.66;4208011;28;5665;-63
2022/03/18 07:53:10;;;;;;;;;;;;;;;8.82;76.00;98032.41;4204417;28;5690;-63
2022/03/18 07:55:11;;;;;;;;;;;;;;;8.90;75.54;98029.84;4206865;28;5903;-65
2022/03/18 07:57:13;;;;;;;;;;;;;;;8.94;75.40;98036.47;4206285;28;5796;-67
2022/03/18 07:59:14;;;;;;;;;;;;;;;9.03;75.38;98032.09;4213985;28;5788;-67
2022/03/18 08:01:16;;;;;;;;;;;;;;;9.08;75.14;98034.28;4213754;28;5827;-66
2022/03/18 08:03:18;;;;;;;;;;;;;;;9.05;74.81;98028.31;4206377;28;5891;-70
2022/03/18 08:05:21;;;;;;;;;;;;;;;8.83;75.30;98023.53;4205869;28;5702;-65
2022/03/18 08:07:29;;;;;;;;;;;;;;;8.83;75.67;98025.34;4206347;28;5688;-64
2022/03/18 08:09:34;;;;;;;;;;;;;;;8.84;75.91;98034.94;4199124;28;5789;-64
2022/03/18 08:11:35;;;;;;;;;;;;;;;8.92;75.45;98027.06;4208825;28;5693;-64
2022/03/18 08:13:38;;;;;;;;;;;;;;;8.82;75.31;98036.88;4215042;28;5735;-64
2022/03/18 08:15:40;;;;;;;;;;;;;;;8.90;75.46;98039.59;4208780;28;5911;-65
2022/03/18 08:17:43;;;;;;;;;;;;;;;8.94;75.49;98022.47;4213738;28;5697;-63
2022/03/18 08:19:45;;;;;;;;;;;;;;;9.08;75.00;98032.47;4199706;28;5780;-64
2022/03/18 08:21:49;;;;;;;;;;;;;;;8.86;74.97;98041.69;4202132;28;5690;-61
2022/03/18 08:23:51;;;;;;;;;;;;;;;8.73;75.66;98036.81;4210370;28;5755;-62
2022/03/18 08:25:55;;;;;;;;;;;;;;;8.92;75.14;98042.88;4215362;28;5684;-61
2022/03/18 08:27:57;;;;;;;;;;;;;;;8.96;75.04;98038.97;4200408;28;5895;-62
2022/03/18 08:30:00;;;;;;;;;;;;;;;9.07;74.36;98044.03;4205078;28;5161;-62
2022/03/18 08:32:01;;;;;;;;;;;;;;;8.99;74.65;98042.13;4214252;28;5760;-62
2022/03/18 08:34:03;;;;;;;;;;;;;;;8.94;74.95;98035.66;4209519;28;5835;-76
2022/03/18 08:36:05;;;;;;;;;;;;;;;9.14;74.86;98042.41;4198710;28;5786;-63
2022/03/18 08:38:09;;;;;;;;;;;;;;;9.17;73.91;98041.25;4202727;28;6369;-64
2022/03/18 08:40:12;;;;;;;;;;;;;;;8.96;74.46;98054.81;4205419;28;5774;-64
2022/03/18 08:42:15;;;;;;;;;;;;;;;9.08;73.86;98060.69;4208403;28;5709;-67
2022/03/18 08:44:20;;;;;;;;;;;;;;;9.04;74.79;98052.22;4207582;28;5776;-66
2022/03/18 08:46:22;;;;;;;;;;;;;;;9.30;73.81;98049.63;4209005;28;5810;-65
2022/03/18 08:48:24;;;;;;;;;;;;;;;9.34;73.33;98054.44;4214327;28;5680;-67
2022/03/18 08:50:26;;;;;;;;;;;;;;;9.37;73.17;98052.47;4207840;28;5732;-66
2022/03/18 08:52:28;;;;;;;;;;;;;;;9.39;73.26;98045.22;4200877;28;5870;-66
2022/03/18 08:54:29;;;;;;;;;;;;;;;9.47;73.15;98047.91;4207106;28;5841;-63
2022/03/18 08:56:32;;;;;;;;;;;;;;;9.60;72.12;98043.03;4209228;28;5824;-67
2022/03/18 08:58:33;;;;;;;;;;;;;;;9.35;72.67;98049.97;4205414;28;6005;-62
2022/03/18 09:00:36;;;;;;;;;;;;;;;9.15;73.33;98049.34;4199085;28;5792;-63
2022/03/18 09:02:39;;;;;;;;;;;;;;;9.13;73.39;98061.03;4205320;28;5764;-63
2022/03/18 09:04:42;;;;;;;;;;;;;;;9.06;73.56;98071.38;4206266;28;5836;-63
2022/03/18 09:06:47;;;;;;;;;;;;;;;9.27;73.40;98061.31;4210135;28;5846;-68
2022/03/18 09:08:48;;;;;;;;;;;;;;;9.28;73.55;98060.31;4209675;28;5680;-64
2022/03/18 09:10:50;;;;;;;;;;;;;;;9.36;73.05;98067.47;4206676;28;5688;-63
2022/03/18 09:12:58;;;;;;;;;;;;;;;9.56;72.14;98057.53;4215372;28;5408;-67
2022/03/18 09:15:02;;;;;;;;;;;;;;;9.59;71.78;98055.41;4198366;28;7354;-68
2022/03/18 09:17:05;;;;;;;;;;;;;;;9.50;72.19;98060.78;4208315;28;5680;-64
2022/03/18 09:19:07;;;;;;;;;;;;;;;9.62;71.54;98055.09;4203327;28;5833;-62
2022/03/18 09:21:09;;;;;;;;;;;;;;;9.66;71.74;98063.56;4198871;28;5812;-67
2022/03/18 09:23:14;;;;;;;;;;;;;;;9.72;71.67;98048.88;4200263;28;5799;-66
2022/03/18 09:25:16;;;;;;;;;;;;;;;9.56;71.68;98068.09;4209773;28;5673;-65
2022/03/18 09:27:18;;;;;;;;;;;;;;;9.24;72.71;98053.69;4211494;28;5855;-65
2022/03/18 09:29:24;;;;;;;;;;;;;;;9.48;72.43;98070.69;4204005;28;5801;-66
2022/03/18 09:31:26;;;;;;;;;;;;;;;9.60;71.74;98058.88;4204672;28;7725;-66
2022/03/18 09:33:28;;;;;;;;;;;;;;;9.48;71.99;98062.75;4209369;28;5839;-66
2022/03/18 09:35:30;;;;;;;;;;;;;;;9.60;71.46;98057.06;4202343;28;5690;-65
2022/03/18 09:37:32;;;;;;;;;;;;;;;9.46;72.09;98062.09;4202246;28;5702;-67
2022/03/18 09:39:34;;;;;;;;;;;;;;;9.61;71.57;98060.53;4204065;28;5800;-63
2022/03/18 09:41:39;;;;;;;;;;;;;;;9.53;71.68;98068.44;4206191;28;5700;-63
2022/03/18 09:43:41;;;;;;;;;;;;;;;9.72;71.76;98068.19;4208773;28;5678;-66
2022/03/18 09:45:44;;;;;;;;;;;;;;;9.56;71.78;98061.00;4200836;28;5718;-65
2022/03/18 09:47:55;;;;;;;;;;;;;;;9.51;71.88;98071.22;4203707;28;5697;-66
2022/03/18 09:49:57;;;;;;;;;;;;;;;9.70;71.08;98083.38;4202752;28;5098;-67
2022/03/18 09:51:59;;;;;;;;;;;;;;;9.55;71.32;98082.28;4199402;28;5716;-66
2022/03/18 09:54:01;;;;;;;;;;;;;;;9.77;71.19;98086.22;4205543;28;5707;-67
2022/03/18 09:56:04;;;;;;;;;;;;;;;9.79;70.82;98086.88;4201628;28;5705;-65
2022/03/18 09:58:07;;;;;;;;;;;;;;;9.72;70.83;98089.31;4214572;28;5097;-66
2022/03/18 10:00:09;;;;;;;;;;;;;;;9.74;71.01;98100.56;4219085;28;8644;-64
2022/03/18 10:02:33;;;;;;;;;;;;;;;9.52;72.00;98082.59;4217069;28;5708;-65
2022/03/18 10:04:50;;;;;;;;;;;;;;;9.43;71.60;98100.19;4222742;28;5659;-63
2022/03/18 10:06:53;;;;;;;;;;;;;;;9.64;71.30;98091.94;4225076;28;5677;-65
2022/03/18 10:08:55;;;;;;;;;;;;;;;9.61;71.68;98094.84;4213143;28;5823;-65
2022/03/18 10:10:56;;;;;;;;;;;;;;;9.67;71.33;98088.97;4210560;28;5841;-63
2022/03/18 10:13:01;;;;;;;;;;;;;;;9.65;70.90;98085.66;4210989;28;5706;-66
2022/03/18 10:15:18;;;;;;;;;;;;;;;9.72;70.86;98094.59;4213232;28;5403;-68
2022/03/18 10:17:20;;;;;;;;;;;;;;;9.68;70.95;98093.25;4216744;28;6979;-70
2022/03/18 10:19:25;;;;;;;;;;;;;;;9.76;70.77;98097.78;4209495;28;5812;-68
2022/03/18 10:21:28;;;;;;;;;;;;;;;9.90;70.39;98098.00;4201912;28;5940;-69
2022/03/18 10:23:30;;;;;;;;;;;;;;;9.74;70.13;98092.66;4205422;28;5859;-68
2022/03/18 10:25:37;;;;;;;;;;;;;;;9.70;70.88;98095.75;4209208;28;5644;-66
2022/03/18 10:27:48;;;;;;;;;;;;;;;9.47;71.12;98093.63;4205036;28;5916;-67
2022/03/18 10:29:54;;;;;;;;;;;;;;;9.74;70.49;98091.78;4204477;28;5668;-71
2022/03/18 10:32:00;;;;;;;;;;;;;;;9.86;70.11;98101.13;4208059;28;5759;-70
2022/03/18 10:38:45;;;;;;;;;;;;;;;9.72;70.97;98104.34;4208364;28;5784;-66
2022/03/18 10:40:50;;;;;;;;;;;;;;;9.90;70.09;98102.47;4203325;28;5781;-65
2022/03/18 10:43:00;;;;;;;;;;;;;;;9.79;70.48;98100.91;4214228;28;5686;-65
2022/03/18 10:45:03;;;;;;;;;;;;;;;9.83;70.14;98093.50;4210168;28;5690;-68
2022/03/18 10:47:05;;;;;;;;;;;;;;;9.74;69.96;98102.34;4209513;28;5090;-66
2022/03/18 10:49:07;;;;;;;;;;;;;;;9.80;70.03;98092.00;4216335;28;7777;-68
2022/03/18 10:51:09;;;;;;;;;;;;;;;9.80;69.82;98110.50;4201216;28;5746;-66
2022/03/18 10:53:12;;;;;;;;;;;;;;;9.74;70.37;98075.94;4200391;28;5698;-69
2022/03/18 10:55:19;;;;;;;;;;;;;;;9.88;69.76;98107.91;4212515;28;5779;-67
2022/03/18 10:57:21;;;;;;;;;;;;;;;10.02;69.51;98090.63;4207868;28;5693;-66
2022/03/18 10:59:26;;;;;;;;;;;;;;;9.73;69.81;98101.53;4212702;28;5807;-65
2022/03/18 11:01:32;;;;;;;;;;;;;;;9.68;70.17;98097.72;4205158;28;5664;-65
2022/03/18 11:03:35;;;;;;;;;;;;;;;9.43;71.18;98094.09;4205661;28;5699;-65
2022/03/18 11:05:50;;;;;;;;;;;;;;;9.60;70.63;98095.84;4207153;28;5797;-65
2022/03/18 11:07:54;;;;;;;;;;;;;;;9.75;69.93;98104.03;4212976;28;5710;-71
2022/03/18 11:12:22;;;;;;;;;;;;;;;9.89;69.13;98098.19;4217517;28;5822;-68
2022/03/18 11:14:23;;;;;;;;;;;;;;;9.97;69.56;98097.41;4214713;28;5696;-70
2022/03/18 11:16:31;;;;;;;;;;;;;;;9.82;69.51;98102.41;4200946;28;5694;-70
2022/03/18 11:18:34;;;;;;;;;;;;;;;10.01;68.86;98104.00;4211355;28;5756;-66
2022/03/18 11:20:42;;;;;;;;;;;;;;;9.98;69.03;98099.06;4212062;28;5661;-60
2022/03/18 11:22:44;;;;;;;;;;;;;;;10.05;68.64;98100.88;4202816;28;5853;-63
2022/03/18 11:24:48;;;;;;;;;;;;;;;9.96;69.09;98096.53;4203606;28;5780;-62
2022/03/18 11:26:51;;;;;;;;;;;;;;;9.85;69.12;98089.75;4203523;28;5811;-70
2022/03/18 11:29:07;;;;;;;;;;;;;;;9.98;68.72;98107.81;4216707;28;5643;-64
2022/03/18 11:31:10;;;;;;;;;;;;;;;9.88;68.44;98088.59;4216781;28;5802;-61
2022/03/18 11:33:15;;;;;;;;;;;;;;;9.69;69.79;98094.91;4206803;28;6336;-61
2022/03/18 11:35:19;;;;;;;;;;;;;;;9.65;69.92;98088.31;4206804;28;6409;-62
2022/03/18 11:37:21;;;;;;;;;;;;;;;9.68;69.49;98101.19;4203670;28;5867;-62
2022/03/18 11:39:23;;;;;;;;;;;;;;;9.58;69.52;98103.09;4211215;28;6380;-62
2022/03/18 11:41:45;;;;;;;;;;;;;;;9.49;70.02;98089.00;4215205;28;5680;-65
2022/03/18 11:43:47;;;;;;;;;;;;;;;9.45;69.93;98089.47;4215422;28;5692;-65
2022/03/18 11:45:49;;;;;;;;;;;;;;;9.48;69.73;98087.34;4209886;28;5728;-65
2022/03/18 11:47:51;;;;;;;;;;;;;;;9.57;69.68;98090.88;4207987;28;5702;-65
2022/03/18 11:50:38;;;;;;;;;;;;;;;9.52;69.74;98082.59;4206726;28;5868;-65
2022/03/18 11:52:55;;;;;;;;;;;;;;;9.72;69.23;98083.22;4213133;28;5739;-66
2022/03/18 11:55:01;;;;;;;;;;;;;;;9.65;69.81;98093.59;4204786;28;5227;-65
2022/03/18 11:57:05;;;;;;;;;;;;;;;9.81;68.90;98075.19;4213226;28;5688;-66
2022/03/18 11:59:25;;;;;;;;;;;;;;;9.48;70.21;98078.59;4216128;28;5826;-66
2022/03/18 12:01:41;;;;;;;;;;;;;;;9.64;69.09;98089.28;4209367;28;5828;-65
2022/03/18 12:03:43;;;;;;;;;;;;;;;9.70;69.24;98077.25;4211631;28;5911;-66
2022/03/18 12:05:55;;;;;;;;;;;;;;;9.64;69.23;98081.38;4212019;28;5891;-66
2022/03/18 12:07:57;;;;;;;;;;;;;;;9.72;69.05;98084.03;4200036;28;5796;-64
2022/03/18 12:10:00;;;;;;;;;;;;;;;9.60;68.99;98082.63;4212949;28;6421;-64
2022/03/18 12:12:15;;;;;;;;;;;;;;;9.56;69.15;98089.22;4214700;28;5682;-66
2022/03/18 12:14:17;;;;;;;;;;;;;;;9.49;69.68;98067.06;4205371;28;5710;-66
2022/03/18 12:16:20;;;;;;;;;;;;;;;9.42;70.18;98082.69;4214291;28;5748;-65
2022/03/18 12:18:28;;;;;;;;;;;;;;;9.35;70.27;98079.00;4216242;28;5672;-66
2022/03/18 12:20:42;;;;;;;;;;;;;;;9.71;69.17;98076.28;4211342;28;5791;-66
2022/03/18 12:22:45;;;;;;;;;;;;;;;9.69;69.35;98071.16;4212425;28;5672;-66
2022/03/18 12:24:48;;;;;;;;;;;;;;;9.75;68.89;98081.09;4214560;28;5692;-65
2022/03/18 12:26:50;;;;;;;;;;;;;;;9.69;68.58;98073.78;4212792;28;5839;-65
2022/03/18 12:28:52;;;;;;;;;;;;;;;9.65;68.72;98066.34;4212402;28;5676;-66
2022/03/18 12:30:53;;;;;;;;;;;;;;;9.55;69.18;98066.44;4210145;28;5175;-63
2022/03/18 12:33:00;;;;;;;;;;;;;;;9.55;69.26;98069.91;4212897;28;7758;-63
2022/03/18 12:35:04;;;;;;;;;;;;;;;9.38;70.24;98072.59;4215830;28;5704;-61
2022/03/18 12:37:16;;;;;;;;;;;;;;;9.57;69.44;98080.31;4205416;28;5685;-67
2022/03/18 12:39:18;;;;;;;;;;;;;;;9.65;69.13;98075.09;4213501;28;5791;-70
2022/03/18 12:41:21;;;;;;;;;;;;;;;9.52;69.34;98072.06;4209380;28;5383;-66
2022/03/18 12:43:25;;;;;;;;;;;;;;;9.72;68.68;98062.91;4209708;28;8393;-67
2022/03/18 12:45:29;;;;;;;;;;;;;;;9.88;68.33;98070.94;4202128;28;5102;-66
2022/03/18 12:47:31;;;;;;;;;;;;;;;9.71;68.34;98069.19;4206650;28;7754;-66
2022/03/18 12:49:37;;;;;;;;;;;;;;;9.73;68.40;98063.72;4205616;28;6519;-66
2022/03/18 12:51:51;;;;;;;;;;;;;;;9.74;68.59;98071.53;4208890;28;5668;-67
2022/03/18 12:53:52;;;;;;;;;;;;;;;9.68;68.70;98072.13;4208510;28;5678;-68
2022/03/18 12:55:57;;;;;;;;;;;;;;;9.65;68.25;98083.03;4204752;28;5693;-68
2022/03/18 12:57:59;;;;;;;;;;;;;;;9.65;68.31;98061.06;4212935;28;5818;-66
2022/03/18 13:00:01;;;;;;;;;;;;;;;9.77;68.24;98055.34;4208160;28;6439;-70
2022/03/18 13:02:24;;;;;;;;;;;;;;;9.85;68.12;98057.19;4218094;28;5680;-65
2022/03/18 13:04:27;;;;;;;;;;;;;;;9.75;68.26;98053.88;4217199;28;6438;-78
2022/03/18 13:06:29;;;;;;;;;;;;;;;9.76;68.00;98064.28;4212654;28;5756;-66
2022/03/18 13:08:34;;;;;;;;;;;;;;;9.92;67.76;98053.78;4207542;28;5780;-64
2022/03/18 13:10:37;;;;;;;;;;;;;;;9.88;67.51;98057.72;4219401;28;5895;-73
2022/03/18 13:12:39;;;;;;;;;;;;;;;9.68;67.87;98061.56;4216018;28;5803;-69
2022/03/18 13:14:42;;;;;;;;;;;;;;;9.64;68.09;98065.53;4211737;28;5771;-72
2022/03/18 13:16:44;;;;;;;;;;;;;;;9.50;68.88;98052.88;4208032;28;5768;-62
2022/03/18 13:18:53;;;;;;;;;;;;;;;9.43;68.53;98060.59;4212492;28;6466;-69
2022/03/18 13:21:00;;;;;;;;;;;;;;;9.65;68.03;98042.59;4209209;28;5794;-75
2022/03/18 13:23:03;;;;;;;;;;;;;;;9.59;68.53;98046.66;4209636;28;5771;-67
2022/03/18 13:25:05;;;;;;;;;;;;;;;9.74;67.94;98063.59;4209627;28;5850;-65
2022/03/18 13:27:11;;;;;;;;;;;;;;;9.89;67.40;98045.34;4205692;28;5919;-72
2022/03/18 13:29:14;;;;;;;;;;;;;;;9.60;68.26;98049.16;4207764;28;5767;-82
2022/03/18 13:33:46;;;;;;;;;;;;;;;9.86;67.23;98050.94;4208641;28;5867;-67
2022/03/18 13:35:50;;;;;;;;;;;;;;;9.83;67.14;98038.88;4210610;28;5794;-63
2022/03/18 13:38:10;;;;;;;;;;;;;;;9.71;67.82;98049.88;4203042;28;5747;-73
2022/03/18 13:40:14;;;;;;;;;;;;;;;9.48;68.61;98044.28;4206376;28;5778;-62
2022/03/18 13:42:26;;;;;;;;;;;;;;;9.33;68.89;98063.34;4208126;28;5795;-67
2022/03/18 13:44:49;;;;;;;;;;;;;;;9.51;68.84;98041.31;4206024;28;5793;-75
2022/03/18 13:46:57;;;;;;;;;;;;;;;9.55;68.37;98024.22;4206494;28;5852;-68
2022/03/18 13:49:14;;;;;;;;;;;;;;;9.64;67.78;98044.41;4205815;28;5736;-67
2022/03/18 13:51:34;;;;;;;;;;;;;;;9.81;67.42;98061.16;4212074;28;5791;-67
2022/03/18 13:53:38;;;;;;;;;;;;;;;9.56;68.02;98041.72;4210361;28;5747;-67
2022/03/18 13:55:44;;;;;;;;;;;;;;;9.57;68.38;98043.34;4214533;28;5857;-65
2022/03/18 13:57:48;;;;;;;;;;;;;;;9.74;67.95;98039.84;4208122;28;5794;-64
2022/03/18 13:59:55;;;;;;;;;;;;;;;9.84;67.53;98048.44;4198871;28;6494;-65
2022/03/18 14:02:08;;;;;;;;;;;;;;;9.66;67.78;98046.88;4205532;28;5849;-66
2022/03/18 14:04:09;;;;;;;;;;;;;;;9.70;67.95;98038.47;4209778;28;5807;-65
2022/03/18 14:06:14;;;;;;;;;;;;;;;9.73;67.71;98042.59;4210095;28;5793;-66
2022/03/18 14:08:30;;;;;;;;;;;;;;;9.60;67.98;98029.84;4205864;28;5776;-64
2022/03/18 14:10:38;;;;;;;;;;;;;;;9.75;68.12;98043.31;4202719;28;5804;-67
2022/03/18 14:13:09;;;;;;;;;;;;;;;9.75;67.79;98032.75;4209608;28;5761;-72
2022/03/18 14:15:18;;;;;;;;;;;;;;;9.56;68.24;98029.34;4204424;28;5905;-69
2022/03/18 14:17:22;;;;;;;;;;;;;;;9.53;68.62;98021.72;4209890;28;5792;-71
2022/03/18 14:19:59;;;;;;;;;;;;;;;9.56;68.21;98031.16;4200560;28;5800;-74
2022/03/18 14:22:00;;;;;;;;;;;;;;;9.64;68.28;98041.75;4198704;28;5871;-68
2022/03/18 14:24:02;;;;;;;;;;;;;;;9.63;68.40;98030.38;4198297;28;5812;-71
2022/03/18 14:26:10;;;;;;;;;;;;;;;9.74;68.00;98050.41;4205345;28;5776;-69
2022/03/18 14:28:20;;;;;;;;;;;;;;;9.56;68.37;98031.16;4202325;28;5827;-71
2022/03/18 14:30:24;;;;;;;;;;;;;;;9.54;68.63;98033.13;4208050;28;5786;-70
2022/03/18 14:32:26;;;;;;;;;;;;;;;9.60;68.30;98028.03;4204689;28;6124;-67
2022/03/18 14:34:29;;;;;;;;;;;;;;;9.77;67.76;98038.69;4207332;28;7804;-68
2022/03/18 14:36:32;;;;;;;;;;;;;;;9.66;68.38;98033.69;4205863;28;6711;-68
2022/03/18 14:38:34;;;;;;;;;;;;;;;9.80;68.01;98036.56;4203314;28;5800;-67
2022/03/18 14:40:37;;;;;;;;;;;;;;;9.92;67.61;98045.84;4206572;28;5802;-68
2022/03/18 14:42:40;;;;;;;;;;;;;;;9.62;68.53;98033.97;4210372;28;5796;-69
2022/03/18 14:44:47;;;;;;;;;;;;;;;9.58;68.50;98024.72;4200851;28;5810;-69
2022/03/18 14:46:49;;;;;;;;;;;;;;;9.53;68.61;98036.75;4208390;28;5759;-70
2022/03/18 14:48:50;;;;;;;;;;;;;;;9.85;68.16;98041.34;4211154;28;5760;-74
2022/03/18 14:50:52;;;;;;;;;;;;;;;9.85;67.51;98034.28;4210706;28;5783;-68
2022/03/18 14:52:56;;;;;;;;;;;;;;;9.99;67.10;98024.09;4213305;28;5771;-63
2022/03/18 14:57:19;;;;;;;;;;;;;;;9.67;68.42;98030.88;4208781;28;5751;-68
2022/03/18 14:59:21;;;;;;;;;;;;;;;9.76;68.04;98043.16;4205061;28;5870;-72
2022/03/18 15:01:25;;;;;;;;;;;;;;;9.59;68.49;98033.47;4206297;28;5887;-68
2022/03/18 15:03:27;;;;;;;;;;;;;;;9.86;67.67;98037.75;4206948;28;5791;-69
2022/03/18 15:05:29;;;;;;;;;;;;;;;9.68;67.72;98026.41;4203772;28;5772;-70
2022/03/18 15:07:31;;;;;;;;;;;;;;;9.67;68.16;98033.53;4208992;28;5783;-73
2022/03/18 15:09:33;;;;;;;;;;;;;;;9.89;67.66;98038.25;4208377;28;5775;-68
2022/03/18 15:11:37;;;;;;;;;;;;;;;9.94;67.64;98016.63;4205487;28;5840;-76
2022/03/18 15:13:39;;;;;;;;;;;;;;;9.70;67.36;98032.38;4209021;28;5789;-66
2022/03/18 15:15:42;;;;;;;;;;;;;;;9.54;68.57;98033.13;4201659;28;5863;-67
2022/03/18 15:17:44;;;;;;;;;;;;;;;9.69;68.31;98030.72;4212258;28;5783;-71
2022/03/18 15:19:46;;;;;;;;;;;;;;;9.58;68.24;98039.72;4210428;28;5793;-64
2022/03/18 15:21:50;;;;;;;;;;;;;;;9.42;68.16;98029.09;4215221;28;5735;-66
2022/03/18 15:23:59;;;;;;;;;;;;;;;9.67;67.59;98033.53;4209667;28;5851;-66
2022/03/18 15:26:02;;;;;;;;;;;;;;;9.77;67.45;98034.22;4209658;28;5698;-68
2022/03/18 15:28:06;;;;;;;;;;;;;;;9.66;67.62;98041.59;4203596;28;5790;-67
2022/03/18 15:30:09;;;;;;;;;;;;;;;9.54;67.97;98028.66;4206687;28;5671;-63
2022/03/18 15:32:12;;;;;;;;;;;;;;;9.57;68.12;98027.53;4213813;28;6358;-63
2022/03/18 15:34:14;;;;;;;;;;;;;;;9.83;67.09;98038.88;4211589;28;5801;-64
2022/03/18 15:36:15;;;;;;;;;;;;;;;9.53;67.78;98037.56;4206979;28;5672;-67
2022/03/18 15:38:17;;;;;;;;;;;;;;;9.54;67.68;98031.31;4205827;28;6003;-65
2022/03/18 15:40:19;;;;;;;;;;;;;;;9.59;67.48;98041.38;4210575;28;5681;-64
2022/03/18 15:42:22;;;;;;;;;;;;;;;9.54;67.42;98030.47;4206902;28;5890;-62
2022/03/18 15:44:24;;;;;;;;;;;;;;;9.54;67.69;98035.75;4211694;28;5773;-63
2022/03/18 15:46:31;;;;;;;;;;;;;;;9.73;67.25;98035.50;4210595;28;5731;-75
2022/03/18 15:48:33;;;;;;;;;;;;;;;9.76;66.62;98035.22;4215625;28;5850;-72
2022/03/18 15:50:35;;;;;;;;;;;;;;;9.72;66.88;98019.84;4202419;28;5838;-72
2022/03/18 15:52:37;;;;;;;;;;;;;;;9.82;66.51;98037.22;4200185;28;6897;-72
2022/03/18 15:54:40;;;;;;;;;;;;;;;9.89;66.39;98030.31;4200382;28;5867;-71
2022/03/18 15:56:44;;;;;;;;;;;;;;;9.77;66.75;98028.13;4206184;28;5828;-73
2022/03/18 15:58:48;;;;;;;;;;;;;;;9.75;66.75;98015.09;4202932;28;5651;-73
2022/03/18 16:00:49;;;;;;;;;;;;;;;9.74;66.89;98025.78;4205799;28;5702;-73
2022/03/18 16:02:53;;;;;;;;;;;;;;;9.69;66.90;98013.06;4209329;28;5725;-74
2022/03/18 16:04:55;;;;;;;;;;;;;;;9.75;66.76;98035.38;4203986;28;5717;-73
2022/03/18 16:06:58;;;;;;;;;;;;;;;9.81;66.46;98017.06;4218084;28;5847;-71
2022/03/18 16:08:59;;;;;;;;;;;;;;;9.67;66.56;98024.78;4210902;28;5672;-74
2022/03/18 16:11:01;;;;;;;;;;;;;;;9.73;66.42;98013.56;4212008;28;5857;-75
2022/03/18 16:13:05;;;;;;;;;;;;;;;9.70;66.69;98022.63;4209809;28;5685;-72
2022/03/18 16:15:09;;;;;;;;;;;;;;;9.79;66.38;98016.41;4202560;28;5790;-72
2022/03/18 16:17:11;;;;;;;;;;;;;;;9.71;66.19;98018.19;4213933;28;5676;-71
2022/03/18 16:19:12;;;;;;;;;;;;;;;9.55;66.84;98003.09;4207779;28;5849;-71
2022/03/18 16:21:15;;;;;;;;;;;;;;;9.64;66.70;98023.28;4208800;28;5747;-72
2022/03/18 16:23:17;;;;;;;;;;;;;;;9.63;66.46;98011.06;4204124;28;5695;-73
2022/03/18 16:25:26;;;;;;;;;;;;;;;9.70;66.41;98017.34;4206563;28;5771;-73
2022/03/18 16:27:29;;;;;;;;;;;;;;;9.61;66.37;98015.66;4214290;28;5782;-72
2022/03/18 16:29:30;;;;;;;;;;;;;;;9.60;66.28;98021.91;4210955;28;5700;-73
2022/03/18 16:31:33;;;;;;;;;;;;;;;9.62;66.53;98012.03;4206852;28;5836;-74
2022/03/18 16:33:34;;;;;;;;;;;;;;;9.61;66.67;98023.56;4204557;28;5712;-73
2022/03/18 16:35:38;;;;;;;;;;;;;;;9.63;66.18;98018.97;4211156;28;5700;-72
2022/03/18 16:37:40;;;;;;;;;;;;;;;9.67;66.02;98027.41;4209593;28;5704;-71
2022/03/18 16:39:47;;;;;;;;;;;;;;;9.52;66.50;98013.97;4198899;28;5786;-72
2022/03/18 16:41:48;;;;;;;;;;;;;;;9.60;66.67;98021.91;4207972;28;5808;-72